sensor_id;sensor_type;location;lat;lon;timestamp;pressure;altitude;pressure_sealevel;temperature;humidity
48794;BME280;34589;42.306;23.858;2022-08-20T00:01:20;95317.69;;;23.52;48.90
48794;BME280;34589;42.306;23.858;2022-08-20T00:02:54;95312.63;;;23.50;48.24
48794;BME280;34589;42.306;23.858;2022-08-20T00:04:27;95315.59;;;23.54;47.91
48794;BME280;34589;42.306;23.858;2022-08-20T00:06:04;95310.31;;;23.54;48.44
48794;BME280;34589;42.306;23.858;2022-08-20T00:07:36;95312.72;;;23.56;48.44
48794;BME280;34589;42.306;23.858;2022-08-20T00:09:09;95301.00;;;23.51;48.65
48794;BME280;34589;42.306;23.858;2022-08-20T00:10:42;95303.03;;;23.49;48.10
48794;BME280;34589;42.306;23.858;2022-08-20T00:12:18;95299.03;;;23.47;48.61
48794;BME280;34589;42.306;23.858;2022-08-20T00:13:53;95303.66;;;23.40;49.00
48794;BME280;34589;42.306;23.858;2022-08-20T00:15:27;95299.16;;;23.40;48.88
48794;BME280;34589;42.306;23.858;2022-08-20T00:17:01;95294.56;;;23.36;49.52
48794;BME280;34589;42.306;23.858;2022-08-20T00:18:33;95292.13;;;23.34;49.22
48794;BME280;34589;42.306;23.858;2022-08-20T00:20:09;95293.19;;;23.33;49.28
48794;BME280;34589;42.306;23.858;2022-08-20T00:21:41;95295.50;;;23.29;49.53
48794;BME280;34589;42.306;23.858;2022-08-20T00:23:14;95301.50;;;23.25;49.65
48794;BME280;34589;42.306;23.858;2022-08-20T00:24:48;95299.78;;;23.07;49.86
48794;BME280;34589;42.306;23.858;2022-08-20T00:26:21;95295.13;;;22.90;50.46
48794;BME280;34589;42.306;23.858;2022-08-20T00:27:56;95294.13;;;22.91;50.16
48794;BME280;34589;42.306;23.858;2022-08-20T00:29:28;95297.66;;;22.97;50.09
48794;BME280;34589;42.306;23.858;2022-08-20T00:31:02;95291.69;;;23.02;50.12
48794;BME280;34589;42.306;23.858;2022-08-20T00:32:52;95294.81;;;23.10;49.75
48794;BME280;34589;42.306;23.858;2022-08-20T00:34:24;95291.03;;;23.18;49.37
48794;BME280;34589;42.306;23.858;2022-08-20T00:35:56;95292.16;;;23.22;49.19
48794;BME280;34589;42.306;23.858;2022-08-20T00:37:28;95297.00;;;23.25;49.52
48794;BME280;34589;42.306;23.858;2022-08-20T00:39:01;95294.22;;;23.20;49.01
48794;BME280;34589;42.306;23.858;2022-08-20T00:40:36;95300.44;;;23.26;49.17
48794;BME280;34589;42.306;23.858;2022-08-20T00:42:08;95295.72;;;23.40;48.58
48794;BME280;34589;42.306;23.858;2022-08-20T00:43:42;95298.72;;;23.31;48.73
48794;BME280;34589;42.306;23.858;2022-08-20T00:45:15;95295.97;;;23.26;48.90
48794;BME280;34589;42.306;23.858;2022-08-20T00:46:48;95302.88;;;23.15;48.79
48794;BME280;34589;42.306;23.858;2022-08-20T00:48:22;95303.44;;;23.18;48.63
48794;BME280;34589;42.306;23.858;2022-08-20T00:49:54;95294.34;;;23.13;48.99
48794;BME280;34589;42.306;23.858;2022-08-20T00:51:31;95298.59;;;23.03;49.27
48794;BME280;34589;42.306;23.858;2022-08-20T00:53:05;95297.56;;;22.92;49.61
48794;BME280;34589;42.306;23.858;2022-08-20T00:54:49;95300.19;;;22.80;49.40
48794;BME280;34589;42.306;23.858;2022-08-20T00:56:23;95300.53;;;22.84;49.53
48794;BME280;34589;42.306;23.858;2022-08-20T00:57:57;95308.38;;;22.78;49.37
48794;BME280;34589;42.306;23.858;2022-08-20T00:59:32;95303.75;;;22.74;49.68
48794;BME280;34589;42.306;23.858;2022-08-20T01:01:05;95302.72;;;22.75;49.72
48794;BME280;34589;42.306;23.858;2022-08-20T01:02:39;95294.91;;;22.68;50.21
48794;BME280;34589;42.306;23.858;2022-08-20T01:04:12;95290.50;;;22.62;50.73
48794;BME280;34589;42.306;23.858;2022-08-20T01:05:46;95296.41;;;22.64;50.41
48794;BME280;34589;42.306;23.858;2022-08-20T01:07:20;95304.34;;;22.76;49.74
48794;BME280;34589;42.306;23.858;2022-08-20T01:08:57;95300.31;;;22.73;49.99
48794;BME280;34589;42.306;23.858;2022-08-20T01:10:34;95299.41;;;22.68;50.70
48794;BME280;34589;42.306;23.858;2022-08-20T01:12:08;95306.63;;;22.60;51.08
48794;BME280;34589;42.306;23.858;2022-08-20T01:13:41;95292.56;;;22.48;51.20
48794;BME280;34589;42.306;23.858;2022-08-20T01:15:15;95296.25;;;22.47;51.52
48794;BME280;34589;42.306;23.858;2022-08-20T01:16:49;95294.53;;;22.53;51.31
48794;BME280;34589;42.306;23.858;2022-08-20T01:18:24;95292.38;;;22.62;50.51
48794;BME280;34589;42.306;23.858;2022-08-20T01:21:28;95286.16;;;22.68;50.62
48794;BME280;34589;42.306;23.858;2022-08-20T01:23:13;95293.50;;;22.66;50.80
48794;BME280;34589;42.306;23.858;2022-08-20T01:25:06;95295.59;;;22.64;51.15
48794;BME280;34589;42.306;23.858;2022-08-20T01:26:42;95292.13;;;22.63;51.17
48794;BME280;34589;42.306;23.858;2022-08-20T01:28:17;95292.59;;;22.60;51.39
48794;BME280;34589;42.306;23.858;2022-08-20T01:29:50;95288.09;;;22.60;51.43
48794;BME280;34589;42.306;23.858;2022-08-20T01:31:25;95278.22;;;22.68;51.13
48794;BME280;34589;42.306;23.858;2022-08-20T01:32:59;95280.41;;;22.71;50.42
48794;BME280;34589;42.306;23.858;2022-08-20T01:34:31;95279.59;;;22.70;50.47
48794;BME280;34589;42.306;23.858;2022-08-20T01:36:04;95283.28;;;22.69;50.84
48794;BME280;34589;42.306;23.858;2022-08-20T01:37:36;95282.91;;;22.66;50.52
48794;BME280;34589;42.306;23.858;2022-08-20T01:39:09;95294.00;;;22.63;50.88
48794;BME280;34589;42.306;23.858;2022-08-20T01:42:43;95289.59;;;22.45;51.78
48794;BME280;34589;42.306;23.858;2022-08-20T01:44:31;95290.69;;;22.37;52.12
48794;BME280;34589;42.306;23.858;2022-08-20T01:46:03;95290.16;;;22.47;51.19
48794;BME280;34589;42.306;23.858;2022-08-20T01:47:36;95292.81;;;22.47;51.38
48794;BME280;34589;42.306;23.858;2022-08-20T01:49:17;95287.50;;;22.47;51.10
48794;BME280;34589;42.306;23.858;2022-08-20T01:51:11;95280.38;;;22.59;50.44
48794;BME280;34589;42.306;23.858;2022-08-20T01:54:22;95275.91;;;22.59;50.69
48794;BME280;34589;42.306;23.858;2022-08-20T01:55:56;95265.22;;;22.54;50.56
48794;BME280;34589;42.306;23.858;2022-08-20T01:57:28;95265.53;;;22.46;50.58
48794;BME280;34589;42.306;23.858;2022-08-20T01:59:01;95269.78;;;22.47;50.95
48794;BME280;34589;42.306;23.858;2022-08-20T02:00:35;95269.09;;;22.52;50.38
48794;BME280;34589;42.306;23.858;2022-08-20T02:02:08;95265.31;;;22.48;50.63
48794;BME280;34589;42.306;23.858;2022-08-20T02:03:40;95262.69;;;22.59;50.59
48794;BME280;34589;42.306;23.858;2022-08-20T02:05:16;95271.63;;;22.58;50.65
48794;BME280;34589;42.306;23.858;2022-08-20T02:06:51;95268.53;;;22.62;50.29
48794;BME280;34589;42.306;23.858;2022-08-20T02:08:28;95265.66;;;22.51;50.58
48794;BME280;34589;42.306;23.858;2022-08-20T02:10:04;95262.66;;;22.48;51.01
48794;BME280;34589;42.306;23.858;2022-08-20T02:11:37;95266.44;;;22.40;51.10
48794;BME280;34589;42.306;23.858;2022-08-20T02:13:09;95264.94;;;22.32;51.40
48794;BME280;34589;42.306;23.858;2022-08-20T02:14:43;95259.66;;;22.32;51.83
48794;BME280;34589;42.306;23.858;2022-08-20T02:16:15;95256.75;;;22.34;51.27
48794;BME280;34589;42.306;23.858;2022-08-20T02:17:48;95255.28;;;22.38;51.52
48794;BME280;34589;42.306;23.858;2022-08-20T02:19:25;95255.75;;;22.35;51.54
48794;BME280;34589;42.306;23.858;2022-08-20T02:20:59;95259.28;;;22.29;51.70
48794;BME280;34589;42.306;23.858;2022-08-20T02:22:50;95257.38;;;22.36;51.03
48794;BME280;34589;42.306;23.858;2022-08-20T02:24:25;95251.13;;;22.42;50.78
48794;BME280;34589;42.306;23.858;2022-08-20T02:25:57;95252.06;;;22.36;50.48
48794;BME280;34589;42.306;23.858;2022-08-20T02:27:30;95239.28;;;22.33;50.77
48794;BME280;34589;42.306;23.858;2022-08-20T02:29:03;95245.00;;;22.18;51.09
48794;BME280;34589;42.306;23.858;2022-08-20T02:30:37;95246.50;;;22.14;51.40
48794;BME280;34589;42.306;23.858;2022-08-20T02:32:09;95239.78;;;22.11;51.98
48794;BME280;34589;42.306;23.858;2022-08-20T02:34:04;95248.50;;;22.00;52.30
48794;BME280;34589;42.306;23.858;2022-08-20T02:35:53;95236.69;;;22.02;52.11
48794;BME280;34589;42.306;23.858;2022-08-20T02:37:28;95252.53;;;22.02;52.08
48794;BME280;34589;42.306;23.858;2022-08-20T02:39:00;95251.72;;;22.02;52.37
48794;BME280;34589;42.306;23.858;2022-08-20T02:40:32;95235.53;;;22.10;51.60
48794;BME280;34589;42.306;23.858;2022-08-20T02:42:04;95237.72;;;22.13;51.85
48794;BME280;34589;42.306;23.858;2022-08-20T02:43:37;95235.53;;;22.10;51.55
48794;BME280;34589;42.306;23.858;2022-08-20T02:45:10;95234.59;;;22.04;51.95
48794;BME280;34589;42.306;23.858;2022-08-20T02:46:49;95237.69;;;22.01;51.90
48794;BME280;34589;42.306;23.858;2022-08-20T02:48:22;95237.81;;;22.07;51.87
48794;BME280;34589;42.306;23.858;2022-08-20T02:49:54;95234.38;;;22.06;52.11
48794;BME280;34589;42.306;23.858;2022-08-20T02:51:26;95233.81;;;22.04;52.12
48794;BME280;34589;42.306;23.858;2022-08-20T02:53:02;95239.28;;;21.91;52.48
48794;BME280;34589;42.306;23.858;2022-08-20T02:54:34;95233.88;;;21.85;52.25
48794;BME280;34589;42.306;23.858;2022-08-20T02:56:07;95238.56;;;21.83;52.57
48794;BME280;34589;42.306;23.858;2022-08-20T02:57:39;95241.03;;;21.66;53.07
48794;BME280;34589;42.306;23.858;2022-08-20T02:59:11;95235.69;;;21.36;53.97
48794;BME280;34589;42.306;23.858;2022-08-20T03:00:50;95237.31;;;21.37;53.70
48794;BME280;34589;42.306;23.858;2022-08-20T03:02:23;95244.34;;;21.25;53.96
48794;BME280;34589;42.306;23.858;2022-08-20T03:03:55;95242.03;;;21.35;53.82
48794;BME280;34589;42.306;23.858;2022-08-20T03:05:29;95245.97;;;21.44;53.77
48794;BME280;34589;42.306;23.858;2022-08-20T03:07:01;95245.09;;;21.51;53.39
48794;BME280;34589;42.306;23.858;2022-08-20T03:08:35;95241.56;;;21.57;53.21
48794;BME280;34589;42.306;23.858;2022-08-20T03:10:07;95246.53;;;21.65;52.74
48794;BME280;34589;42.306;23.858;2022-08-20T03:11:39;95236.59;;;21.79;52.47
48794;BME280;34589;42.306;23.858;2022-08-20T03:13:14;95243.28;;;21.81;52.86
48794;BME280;34589;42.306;23.858;2022-08-20T03:14:46;95245.91;;;21.81;53.09
48794;BME280;34589;42.306;23.858;2022-08-20T03:16:19;95254.81;;;21.87;52.17
48794;BME280;34589;42.306;23.858;2022-08-20T03:17:51;95255.03;;;21.85;52.49
48794;BME280;34589;42.306;23.858;2022-08-20T03:19:23;95249.34;;;21.82;52.30
48794;BME280;34589;42.306;23.858;2022-08-20T03:20:56;95256.84;;;21.85;52.71
48794;BME280;34589;42.306;23.858;2022-08-20T03:22:28;95255.16;;;21.91;52.10
48794;BME280;34589;42.306;23.858;2022-08-20T03:24:00;95261.38;;;21.96;51.82
48794;BME280;34589;42.306;23.858;2022-08-20T03:25:34;95261.72;;;22.00;51.36
48794;BME280;34589;42.306;23.858;2022-08-20T03:27:07;95262.78;;;21.99;51.67
48794;BME280;34589;42.306;23.858;2022-08-20T03:28:42;95256.06;;;21.96;51.18
48794;BME280;34589;42.306;23.858;2022-08-20T03:30:14;95257.38;;;22.05;51.03
48794;BME280;34589;42.306;23.858;2022-08-20T03:31:49;95263.34;;;22.01;51.50
48794;BME280;34589;42.306;23.858;2022-08-20T03:33:22;95257.19;;;21.89;51.72
48794;BME280;34589;42.306;23.858;2022-08-20T03:34:54;95265.00;;;21.83;51.71
48794;BME280;34589;42.306;23.858;2022-08-20T03:36:28;95264.09;;;21.90;51.24
48794;BME280;34589;42.306;23.858;2022-08-20T03:38:00;95265.72;;;21.91;51.29
48794;BME280;34589;42.306;23.858;2022-08-20T03:39:33;95267.69;;;21.95;50.71
48794;BME280;34589;42.306;23.858;2022-08-20T03:41:05;95261.84;;;22.05;50.44
48794;BME280;34589;42.306;23.858;2022-08-20T03:42:37;95263.56;;;21.99;50.80
48794;BME280;34589;42.306;23.858;2022-08-20T03:44:10;95263.97;;;21.84;51.83
48794;BME280;34589;42.306;23.858;2022-08-20T03:45:43;95266.22;;;21.69;52.55
48794;BME280;34589;42.306;23.858;2022-08-20T03:47:16;95268.94;;;21.62;52.72
48794;BME280;34589;42.306;23.858;2022-08-20T03:48:48;95270.53;;;21.63;52.78
48794;BME280;34589;42.306;23.858;2022-08-20T03:50:32;95267.66;;;21.65;53.00
48794;BME280;34589;42.306;23.858;2022-08-20T03:52:04;95268.38;;;21.60;52.93
48794;BME280;34589;42.306;23.858;2022-08-20T03:53:36;95262.13;;;21.55;53.83
48794;BME280;34589;42.306;23.858;2022-08-20T03:55:09;95268.59;;;21.59;53.19
48794;BME280;34589;42.306;23.858;2022-08-20T03:56:41;95254.94;;;21.62;53.22
48794;BME280;34589;42.306;23.858;2022-08-20T03:58:14;95261.38;;;21.66;53.33
48794;BME280;34589;42.306;23.858;2022-08-20T03:59:49;95267.09;;;21.63;53.26
48794;BME280;34589;42.306;23.858;2022-08-20T04:01:29;95265.81;;;21.54;53.51
48794;BME280;34589;42.306;23.858;2022-08-20T04:03:17;95255.81;;;21.56;53.84
48794;BME280;34589;42.306;23.858;2022-08-20T04:04:50;95266.97;;;21.58;53.64
48794;BME280;34589;42.306;23.858;2022-08-20T04:06:22;95270.53;;;21.63;53.20
48794;BME280;34589;42.306;23.858;2022-08-20T04:07:58;95267.22;;;21.68;52.88
48794;BME280;34589;42.306;23.858;2022-08-20T04:11:51;95266.75;;;21.59;53.98
48794;BME280;34589;42.306;23.858;2022-08-20T04:13:28;95268.59;;;21.59;54.42
48794;BME280;34589;42.306;23.858;2022-08-20T04:15:01;95269.59;;;21.58;53.71
48794;BME280;34589;42.306;23.858;2022-08-20T04:16:34;95268.94;;;21.62;53.35
48794;BME280;34589;42.306;23.858;2022-08-20T04:18:08;95266.06;;;21.64;53.10
48794;BME280;34589;42.306;23.858;2022-08-20T04:19:41;95269.00;;;21.74;52.41
48794;BME280;34589;42.306;23.858;2022-08-20T04:21:14;95263.25;;;21.77;52.21
48794;BME280;34589;42.306;23.858;2022-08-20T04:22:47;95262.13;;;21.85;52.02
48794;BME280;34589;42.306;23.858;2022-08-20T04:24:30;95264.22;;;21.95;51.72
48794;BME280;34589;42.306;23.858;2022-08-20T04:26:02;95266.16;;;21.88;52.55
48794;BME280;34589;42.306;23.858;2022-08-20T04:27:36;95270.28;;;21.83;52.62
48794;BME280;34589;42.306;23.858;2022-08-20T04:29:08;95265.84;;;21.96;51.81
48794;BME280;34589;42.306;23.858;2022-08-20T04:30:40;95272.88;;;22.02;51.46
48794;BME280;34589;42.306;23.858;2022-08-20T04:32:17;95271.00;;;21.91;52.99
48794;BME280;34589;42.306;23.858;2022-08-20T04:33:52;95278.34;;;21.89;52.44
48794;BME280;34589;42.306;23.858;2022-08-20T04:35:25;95283.78;;;21.94;52.22
48794;BME280;34589;42.306;23.858;2022-08-20T04:36:57;95276.78;;;21.99;51.74
48794;BME280;34589;42.306;23.858;2022-08-20T04:38:30;95275.84;;;21.94;51.84
48794;BME280;34589;42.306;23.858;2022-08-20T04:40:22;95269.25;;;21.84;51.93
48794;BME280;34589;42.306;23.858;2022-08-20T04:42:12;95270.63;;;21.75;52.46
48794;BME280;34589;42.306;23.858;2022-08-20T04:43:45;95268.09;;;21.80;52.02
48794;BME280;34589;42.306;23.858;2022-08-20T04:45:17;95257.06;;;21.83;51.98
48794;BME280;34589;42.306;23.858;2022-08-20T04:46:49;95261.25;;;21.91;51.67
48794;BME280;34589;42.306;23.858;2022-08-20T04:48:23;95256.88;;;21.97;51.36
48794;BME280;34589;42.306;23.858;2022-08-20T04:49:56;95254.81;;;21.87;51.66
48794;BME280;34589;42.306;23.858;2022-08-20T04:51:32;95255.56;;;21.76;52.42
48794;BME280;34589;42.306;23.858;2022-08-20T04:53:09;95264.84;;;21.78;51.87
48794;BME280;34589;42.306;23.858;2022-08-20T04:54:41;95267.06;;;21.81;52.05
48794;BME280;34589;42.306;23.858;2022-08-20T04:56:14;95260.97;;;21.81;52.40
48794;BME280;34589;42.306;23.858;2022-08-20T04:57:47;95256.22;;;21.71;52.42
48794;BME280;34589;42.306;23.858;2022-08-20T04:59:20;95255.66;;;21.69;52.73
48794;BME280;34589;42.306;23.858;2022-08-20T05:00:54;95262.34;;;21.83;52.56
48794;BME280;34589;42.306;23.858;2022-08-20T05:02:32;95254.81;;;21.87;51.99
48794;BME280;34589;42.306;23.858;2022-08-20T05:04:05;95260.09;;;21.87;52.42
48794;BME280;34589;42.306;23.858;2022-08-20T05:05:37;95261.31;;;21.84;53.07
48794;BME280;34589;42.306;23.858;2022-08-20T05:07:11;95253.97;;;21.86;53.39
48794;BME280;34589;42.306;23.858;2022-08-20T05:08:45;95260.88;;;21.88;53.08
48794;BME280;34589;42.306;23.858;2022-08-20T05:10:18;95257.56;;;21.92;53.20
48794;BME280;34589;42.306;23.858;2022-08-20T05:11:50;95261.72;;;22.00;52.66
48794;BME280;34589;42.306;23.858;2022-08-20T05:13:23;95259.44;;;22.03;53.00
48794;BME280;34589;42.306;23.858;2022-08-20T05:14:57;95244.97;;;22.06;52.65
48794;BME280;34589;42.306;23.858;2022-08-20T05:16:29;95253.03;;;22.11;52.28
48794;BME280;34589;42.306;23.858;2022-08-20T05:18:08;95247.94;;;22.10;52.10
48794;BME280;34589;42.306;23.858;2022-08-20T05:19:41;95241.53;;;22.05;52.87
48794;BME280;34589;42.306;23.858;2022-08-20T05:21:14;95248.19;;;22.08;52.79
48794;BME280;34589;42.306;23.858;2022-08-20T05:22:46;95250.59;;;22.10;53.53
48794;BME280;34589;42.306;23.858;2022-08-20T05:24:18;95251.53;;;22.15;53.17
48794;BME280;34589;42.306;23.858;2022-08-20T05:25:52;95237.84;;;22.18;53.61
48794;BME280;34589;42.306;23.858;2022-08-20T05:27:24;95242.13;;;22.19;52.92
48794;BME280;34589;42.306;23.858;2022-08-20T05:28:57;95243.50;;;22.22;53.02
48794;BME280;34589;42.306;23.858;2022-08-20T05:30:29;95253.78;;;22.30;52.85
48794;BME280;34589;42.306;23.858;2022-08-20T05:32:04;95248.25;;;22.32;52.42
48794;BME280;34589;42.306;23.858;2022-08-20T05:33:37;95256.09;;;22.38;52.67
48794;BME280;34589;42.306;23.858;2022-08-20T05:35:11;95250.00;;;22.38;52.80
48794;BME280;34589;42.306;23.858;2022-08-20T05:36:44;95242.50;;;22.35;52.75
48794;BME280;34589;42.306;23.858;2022-08-20T05:38:21;95241.50;;;22.36;52.70
48794;BME280;34589;42.306;23.858;2022-08-20T05:39:54;95248.28;;;22.44;52.77
48794;BME280;34589;42.306;23.858;2022-08-20T05:41:26;95247.38;;;22.50;52.74
48794;BME280;34589;42.306;23.858;2022-08-20T05:43:02;95240.56;;;22.54;52.35
48794;BME280;34589;42.306;23.858;2022-08-20T05:44:35;95242.31;;;22.60;52.68
48794;BME280;34589;42.306;23.858;2022-08-20T05:46:08;95226.19;;;22.62;52.40
48794;BME280;34589;42.306;23.858;2022-08-20T05:47:41;95239.09;;;22.70;52.26
48794;BME280;34589;42.306;23.858;2022-08-20T05:49:17;95230.34;;;22.81;52.05
48794;BME280;34589;42.306;23.858;2022-08-20T05:50:51;95232.75;;;22.83;51.85
48794;BME280;34589;42.306;23.858;2022-08-20T05:52:25;95224.44;;;22.79;52.27
48794;BME280;34589;42.306;23.858;2022-08-20T05:53:57;95232.75;;;22.83;52.12
48794;BME280;34589;42.306;23.858;2022-08-20T05:55:30;95233.09;;;22.86;52.24
48794;BME280;34589;42.306;23.858;2022-08-20T05:57:02;95233.56;;;22.95;51.96
48794;BME280;34589;42.306;23.858;2022-08-20T05:58:34;95232.97;;;23.05;51.84
48794;BME280;34589;42.306;23.858;2022-08-20T06:00:11;95224.59;;;23.08;51.53
48794;BME280;34589;42.306;23.858;2022-08-20T06:01:44;95225.38;;;23.08;51.26
48794;BME280;34589;42.306;23.858;2022-08-20T06:03:17;95218.44;;;23.19;51.16
48794;BME280;34589;42.306;23.858;2022-08-20T06:05:07;95228.91;;;23.26;51.07
48794;BME280;34589;42.306;23.858;2022-08-20T06:06:40;95220.81;;;23.32;51.06
48794;BME280;34589;42.306;23.858;2022-08-20T06:08:17;95223.25;;;23.34;51.24
48794;BME280;34589;42.306;23.858;2022-08-20T06:09:51;95224.72;;;23.42;50.67
48794;BME280;34589;42.306;23.858;2022-08-20T06:11:22;95225.16;;;23.10;53.00
48794;BME280;34589;42.306;23.858;2022-08-20T06:12:55;95221.44;;;23.11;53.05
48794;BME280;34589;42.306;23.858;2022-08-20T06:14:29;95214.97;;;23.30;52.81
48794;BME280;34589;42.306;23.858;2022-08-20T06:16:02;95220.94;;;23.38;52.52
48794;BME280;34589;42.306;23.858;2022-08-20T06:17:38;95226.31;;;23.43;52.41
48794;BME280;34589;42.306;23.858;2022-08-20T06:19:12;95237.91;;;23.65;51.00
48794;BME280;34589;42.306;23.858;2022-08-20T06:20:56;95227.38;;;23.82;50.28
48794;BME280;34589;42.306;23.858;2022-08-20T06:22:28;95227.28;;;23.65;51.45
48794;BME280;34589;42.306;23.858;2022-08-20T06:24:01;95234.06;;;23.73;51.33
48794;BME280;34589;42.306;23.858;2022-08-20T06:25:33;95231.50;;;23.90;50.72
48794;BME280;34589;42.306;23.858;2022-08-20T06:27:11;95233.59;;;24.05;49.92
48794;BME280;34589;42.306;23.858;2022-08-20T06:28:45;95237.03;;;23.88;51.29
48794;BME280;34589;42.306;23.858;2022-08-20T06:30:17;95248.44;;;23.77;51.50
48794;BME280;34589;42.306;23.858;2022-08-20T06:31:49;95233.00;;;23.86;51.19
48794;BME280;34589;42.306;23.858;2022-08-20T06:33:22;95234.31;;;24.00;50.72
48794;BME280;34589;42.306;23.858;2022-08-20T06:34:54;95231.28;;;24.08;50.84
48794;BME280;34589;42.306;23.858;2022-08-20T06:36:26;95227.41;;;24.16;50.30
48794;BME280;34589;42.306;23.858;2022-08-20T06:37:58;95228.25;;;24.34;49.39
48794;BME280;34589;42.306;23.858;2022-08-20T06:39:31;95225.91;;;24.37;49.49
48794;BME280;34589;42.306;23.858;2022-08-20T06:41:04;95223.97;;;24.50;49.21
48794;BME280;34589;42.306;23.858;2022-08-20T06:42:37;95227.84;;;24.25;50.34
48794;BME280;34589;42.306;23.858;2022-08-20T06:44:19;95219.88;;;24.42;50.40
48794;BME280;34589;42.306;23.858;2022-08-20T06:45:52;95217.25;;;24.59;49.60
48794;BME280;34589;42.306;23.858;2022-08-20T06:47:29;95228.63;;;24.76;49.28
48794;BME280;34589;42.306;23.858;2022-08-20T06:49:02;95225.63;;;24.90;49.20
48794;BME280;34589;42.306;23.858;2022-08-20T06:50:36;95227.38;;;24.62;50.39
48794;BME280;34589;42.306;23.858;2022-08-20T06:52:18;95225.97;;;24.42;50.84
48794;BME280;34589;42.306;23.858;2022-08-20T06:54:08;95224.88;;;24.55;50.90
48794;BME280;34589;42.306;23.858;2022-08-20T06:55:42;95227.53;;;24.55;50.47
48794;BME280;34589;42.306;23.858;2022-08-20T06:57:18;95226.63;;;24.67;49.84
48794;BME280;34589;42.306;23.858;2022-08-20T06:58:51;95223.38;;;24.81;49.08
48794;BME280;34589;42.306;23.858;2022-08-20T07:00:25;95222.63;;;25.03;48.66
48794;BME280;34589;42.306;23.858;2022-08-20T07:01:58;95222.81;;;25.18;48.04
48794;BME280;34589;42.306;23.858;2022-08-20T07:03:31;95217.41;;;25.30;48.15
48794;BME280;34589;42.306;23.858;2022-08-20T07:05:04;95225.78;;;25.39;48.00
48794;BME280;34589;42.306;23.858;2022-08-20T07:06:36;95224.75;;;25.45;47.35
48794;BME280;34589;42.306;23.858;2022-08-20T07:08:09;95216.84;;;25.50;47.70
48794;BME280;34589;42.306;23.858;2022-08-20T07:09:43;95219.25;;;25.52;48.14
48794;BME280;34589;42.306;23.858;2022-08-20T07:11:16;95218.06;;;25.65;46.89
48794;BME280;34589;42.306;23.858;2022-08-20T07:12:49;95215.72;;;25.68;46.87
48794;BME280;34589;42.306;23.858;2022-08-20T07:14:21;95206.94;;;25.68;46.88
48794;BME280;34589;42.306;23.858;2022-08-20T07:15:54;95206.25;;;25.78;46.29
48794;BME280;34589;42.306;23.858;2022-08-20T07:17:26;95203.34;;;25.79;46.58
48794;BME280;34589;42.306;23.858;2022-08-20T07:18:59;95202.56;;;25.84;47.26
48794;BME280;34589;42.306;23.858;2022-08-20T07:20:33;95201.06;;;25.93;47.16
48794;BME280;34589;42.306;23.858;2022-08-20T07:22:06;95201.25;;;25.86;47.49
48794;BME280;34589;42.306;23.858;2022-08-20T07:23:38;95197.59;;;25.92;47.36
48794;BME280;34589;42.306;23.858;2022-08-20T07:25:14;95190.81;;;26.07;46.99
48794;BME280;34589;42.306;23.858;2022-08-20T07:26:47;95192.81;;;26.22;46.61
48794;BME280;34589;42.306;23.858;2022-08-20T07:28:23;95187.94;;;26.14;47.85
48794;BME280;34589;42.306;23.858;2022-08-20T07:29:55;95186.66;;;26.16;47.57
48794;BME280;34589;42.306;23.858;2022-08-20T07:31:45;95189.41;;;26.26;47.18
48794;BME280;34589;42.306;23.858;2022-08-20T07:33:41;95195.69;;;26.15;47.92
48794;BME280;34589;42.306;23.858;2022-08-20T07:35:15;95188.72;;;26.09;48.37
48794;BME280;34589;42.306;23.858;2022-08-20T07:36:48;95183.75;;;26.18;47.95
48794;BME280;34589;42.306;23.858;2022-08-20T07:38:22;95189.78;;;26.08;48.70
48794;BME280;34589;42.306;23.858;2022-08-20T07:39:57;95188.03;;;26.24;48.04
48794;BME280;34589;42.306;23.858;2022-08-20T07:41:29;95196.34;;;26.33;48.13
48794;BME280;34589;42.306;23.858;2022-08-20T07:43:01;95190.47;;;26.31;48.22
48794;BME280;34589;42.306;23.858;2022-08-20T07:44:33;95178.09;;;26.14;48.38
48794;BME280;34589;42.306;23.858;2022-08-20T07:46:06;95185.44;;;26.34;48.42
48794;BME280;34589;42.306;23.858;2022-08-20T07:47:41;95183.13;;;26.43;48.74
48794;BME280;34589;42.306;23.858;2022-08-20T07:49:14;95188.41;;;26.38;48.37
48794;BME280;34589;42.306;23.858;2022-08-20T07:50:47;95180.31;;;26.60;47.83
48794;BME280;34589;42.306;23.858;2022-08-20T07:52:20;95182.31;;;26.42;48.38
48794;BME280;34589;42.306;23.858;2022-08-20T07:53:53;95183.19;;;26.53;47.96
48794;BME280;34589;42.306;23.858;2022-08-20T07:55:25;95180.38;;;26.65;47.97
48794;BME280;34589;42.306;23.858;2022-08-20T07:57:01;95183.56;;;26.67;47.79
48794;BME280;34589;42.306;23.858;2022-08-20T07:58:37;95186.56;;;26.81;47.68
48794;BME280;34589;42.306;23.858;2022-08-20T08:00:10;95184.41;;;26.73;47.30
48794;BME280;34589;42.306;23.858;2022-08-20T08:04:06;95177.03;;;26.90;46.45
48794;BME280;34589;42.306;23.858;2022-08-20T08:05:40;95178.66;;;26.96;46.34
48794;BME280;34589;42.306;23.858;2022-08-20T08:07:12;95178.97;;;27.05;46.51
48794;BME280;34589;42.306;23.858;2022-08-20T08:08:45;95173.97;;;27.19;45.73
48794;BME280;34589;42.306;23.858;2022-08-20T08:10:19;95163.03;;;27.15;46.71
48794;BME280;34589;42.306;23.858;2022-08-20T08:11:52;95172.06;;;27.14;46.52
48794;BME280;34589;42.306;23.858;2022-08-20T08:13:32;95169.19;;;27.26;45.86
48794;BME280;34589;42.306;23.858;2022-08-20T08:15:09;95161.72;;;27.28;45.49
48794;BME280;34589;42.306;23.858;2022-08-20T08:16:42;95166.31;;;27.38;45.45
48794;BME280;34589;42.306;23.858;2022-08-20T08:18:20;95155.94;;;27.42;45.20
48794;BME280;34589;42.306;23.858;2022-08-20T08:20:01;95151.91;;;27.29;45.24
48794;BME280;34589;42.306;23.858;2022-08-20T08:21:35;95151.13;;;27.33;45.31
48794;BME280;34589;42.306;23.858;2022-08-20T08:23:07;95154.34;;;27.41;45.09
48794;BME280;34589;42.306;23.858;2022-08-20T08:24:56;95159.94;;;27.44;44.59